sensor_id;sensor_type;location;lat;lon;timestamp;pressure;altitude;pressure_sealevel;temperature;humidity
41596;BME280;27283;52.504;13.358;2023-01-28T00:00:58;102327.53;;;1.33;69.18
41596;BME280;27283;52.504;13.358;2023-01-28T00:03:34;102332.19;;;1.48;69.16
41596;BME280;27283;52.504;13.358;2023-01-28T00:06:10;102333.38;;;1.20;69.51
41596;BME280;27283;52.504;13.358;2023-01-28T00:08:47;102338.88;;;1.36;69.81
41596;BME280;27283;52.504;13.358;2023-01-28T00:11:19;102335.94;;;1.22;69.42
41596;BME280;27283;52.504;13.358;2023-01-28T00:13:50;102330.78;;;1.19;69.60
41596;BME280;27283;52.504;13.358;2023-01-28T00:16:22;102329.66;;;1.24;69.61
41596;BME280;27283;52.504;13.358;2023-01-28T00:18:55;102325.44;;;1.00;70.21
41596;BME280;27283;52.504;13.358;2023-01-28T00:21:26;102326.16;;;1.03;70.02
41596;BME280;27283;52.504;13.358;2023-01-28T00:24:01;102334.97;;;1.45;69.11
41596;BME280;27283;52.504;13.358;2023-01-28T00:26:35;102340.13;;;0.86;70.71
41596;BME280;27283;52.504;13.358;2023-01-28T00:29:08;102339.28;;;0.84;71.29
41596;BME280;27283;52.504;13.358;2023-01-28T00:31:39;102345.63;;;1.02;70.69
41596;BME280;27283;52.504;13.358;2023-01-28T00:34:11;102344.16;;;0.95;70.88
41596;BME280;27283;52.504;13.358;2023-01-28T00:36:42;102339.81;;;0.72;71.66
41596;BME280;27283;52.504;13.358;2023-01-28T00:39:28;102340.81;;;0.69;71.81
41596;BME280;27283;52.504;13.358;2023-01-28T00:41:59;102335.69;;;0.65;72.10
41596;BME280;27283;52.504;13.358;2023-01-28T00:44:31;102342.41;;;1.16;70.33
41596;BME280;27283;52.504;13.358;2023-01-28T00:47:04;102334.56;;;0.70;71.55
41596;BME280;27283;52.504;13.358;2023-01-28T00:49:35;102344.97;;;1.18;69.48
41596;BME280;27283;52.504;13.358;2023-01-28T00:52:07;102346.66;;;0.78;70.89
41596;BME280;27283;52.504;13.358;2023-01-28T00:54:42;102352.41;;;0.87;70.68
41596;BME280;27283;52.504;13.358;2023-01-28T00:57:16;102346.44;;;0.82;71.18
41596;BME280;27283;52.504;13.358;2023-01-28T00:59:48;102351.03;;;0.99;69.89
41596;BME280;27283;52.504;13.358;2023-01-28T01:02:19;102364.31;;;0.77;70.78
41596;BME280;27283;52.504;13.358;2023-01-28T01:04:51;102356.13;;;0.83;70.81
41596;BME280;27283;52.504;13.358;2023-01-28T01:07:30;102357.91;;;0.83;70.84
41596;BME280;27283;52.504;13.358;2023-01-28T01:10:15;102355.50;;;0.77;70.52
41596;BME280;27283;52.504;13.358;2023-01-28T01:12:47;102359.38;;;0.90;70.26
41596;BME280;27283;52.504;13.358;2023-01-28T01:15:19;102354.13;;;0.88;70.33
41596;BME280;27283;52.504;13.358;2023-01-28T01:17:51;102356.13;;;0.61;71.02
41596;BME280;27283;52.504;13.358;2023-01-28T01:20:25;102348.56;;;0.52;71.67
41596;BME280;27283;52.504;13.358;2023-01-28T01:22:57;102344.44;;;0.45;71.85
41596;BME280;27283;52.504;13.358;2023-01-28T01:25:31;102348.97;;;0.63;71.82
41596;BME280;27283;52.504;13.358;2023-01-28T01:28:03;102358.84;;;0.60;72.10
41596;BME280;27283;52.504;13.358;2023-01-28T01:30:34;102355.94;;;0.66;72.12
41596;BME280;27283;52.504;13.358;2023-01-28T01:33:05;102348.84;;;0.66;72.54
41596;BME280;27283;52.504;13.358;2023-01-28T01:35:37;102351.09;;;0.77;71.85
41596;BME280;27283;52.504;13.358;2023-01-28T01:38:09;102352.66;;;0.81;71.85
41596;BME280;27283;52.504;13.358;2023-01-28T01:40:45;102354.91;;;1.13;70.66
41596;BME280;27283;52.504;13.358;2023-01-28T01:43:18;102349.69;;;1.32;70.41
41596;BME280;27283;52.504;13.358;2023-01-28T01:45:52;102355.38;;;1.83;67.72
41596;BME280;27283;52.504;13.358;2023-01-28T01:48:28;102357.78;;;1.89;67.15
41596;BME280;27283;52.504;13.358;2023-01-28T01:51:04;102362.06;;;1.52;68.51
41596;BME280;27283;52.504;13.358;2023-01-28T01:53:42;102366.44;;;1.53;69.52
41596;BME280;27283;52.504;13.358;2023-01-28T01:56:22;102374.59;;;1.88;68.29
41596;BME280;27283;52.504;13.358;2023-01-28T01:58:57;102369.25;;;2.08;66.54
41596;BME280;27283;52.504;13.358;2023-01-28T02:01:31;102363.66;;;1.95;67.28
41596;BME280;27283;52.504;13.358;2023-01-28T02:04:07;102365.38;;;2.16;66.21
41596;BME280;27283;52.504;13.358;2023-01-28T02:06:41;102363.66;;;1.95;66.44
41596;BME280;27283;52.504;13.358;2023-01-28T02:09:23;102367.72;;;1.84;66.50
41596;BME280;27283;52.504;13.358;2023-01-28T02:12:03;102375.59;;;1.66;68.44
41596;BME280;27283;52.504;13.358;2023-01-28T02:14:40;102370.69;;;1.36;69.14
41596;BME280;27283;52.504;13.358;2023-01-28T02:17:13;102360.69;;;1.83;68.54
41596;BME280;27283;52.504;13.358;2023-01-28T02:19:49;102365.41;;;1.76;67.34
41596;BME280;27283;52.504;13.358;2023-01-28T02:28:37;102362.06;;;2.48;64.82
41596;BME280;27283;52.504;13.358;2023-01-28T02:31:16;102364.22;;;2.21;65.16
41596;BME280;27283;52.504;13.358;2023-01-28T02:33:54;102357.56;;;2.32;65.20
41596;BME280;27283;52.504;13.358;2023-01-28T02:36:39;102366.78;;;2.61;63.40
41596;BME280;27283;52.504;13.358;2023-01-28T02:39:17;102359.53;;;2.64;63.32
41596;BME280;27283;52.504;13.358;2023-01-28T02:41:54;102356.78;;;2.10;65.38
41596;BME280;27283;52.504;13.358;2023-01-28T02:44:29;102366.25;;;2.16;66.09
41596;BME280;27283;52.504;13.358;2023-01-28T02:47:01;102370.75;;;2.14;65.78
41596;BME280;27283;52.504;13.358;2023-01-28T02:49:49;102368.50;;;2.62;64.07
41596;BME280;27283;52.504;13.358;2023-01-28T02:52:31;102361.72;;;2.37;64.46
41596;BME280;27283;52.504;13.358;2023-01-28T02:55:29;102367.59;;;2.06;65.51
41596;BME280;27283;52.504;13.358;2023-01-28T02:58:09;102371.22;;;2.60;64.27
41596;BME280;27283;52.504;13.358;2023-01-28T03:00:49;102371.59;;;2.34;64.84
41596;BME280;27283;52.504;13.358;2023-01-28T03:03:28;102368.47;;;2.81;62.84
41596;BME280;27283;52.504;13.358;2023-01-28T03:06:06;102368.09;;;2.89;62.00
41596;BME280;27283;52.504;13.358;2023-01-28T03:08:44;102366.69;;;2.62;63.02
41596;BME280;27283;52.504;13.358;2023-01-28T03:11:31;102368.22;;;2.49;62.74
41596;BME280;27283;52.504;13.358;2023-01-28T03:14:18;102374.47;;;2.48;63.43
41596;BME280;27283;52.504;13.358;2023-01-28T03:17:11;102364.50;;;2.53;63.59
41596;BME280;27283;52.504;13.358;2023-01-28T03:19:58;102368.03;;;2.90;62.97
41596;BME280;27283;52.504;13.358;2023-01-28T03:22:46;102368.34;;;2.65;61.85
41596;BME280;27283;52.504;13.358;2023-01-28T03:25:40;102371.22;;;2.79;62.35
41596;BME280;27283;52.504;13.358;2023-01-28T03:28:33;102370.53;;;2.38;62.81
41596;BME280;27283;52.504;13.358;2023-01-28T03:31:21;102370.16;;;2.26;63.78
41596;BME280;27283;52.504;13.358;2023-01-28T03:34:10;102375.88;;;2.74;61.70
41596;BME280;27283;52.504;13.358;2023-01-28T03:36:55;102373.78;;;2.81;61.26
41596;BME280;27283;52.504;13.358;2023-01-28T03:39:29;102371.00;;;2.65;61.30
41596;BME280;27283;52.504;13.358;2023-01-28T03:42:03;102368.94;;;2.53;62.41
41596;BME280;27283;52.504;13.358;2023-01-28T03:44:36;102370.88;;;2.49;62.80
41596;BME280;27283;52.504;13.358;2023-01-28T03:47:22;102369.94;;;2.69;61.46
41596;BME280;27283;52.504;13.358;2023-01-28T03:49:57;102374.63;;;2.45;61.42
41596;BME280;27283;52.504;13.358;2023-01-28T03:52:31;102376.00;;;2.54;61.20
41596;BME280;27283;52.504;13.358;2023-01-28T03:55:04;102379.69;;;2.69;60.57
41596;BME280;27283;52.504;13.358;2023-01-28T03:57:42;102369.94;;;2.50;61.17
41596;BME280;27283;52.504;13.358;2023-01-28T04:00:16;102366.81;;;2.78;60.38
41596;BME280;27283;52.504;13.358;2023-01-28T04:02:49;102367.13;;;2.36;60.95
41596;BME280;27283;52.504;13.358;2023-01-28T04:05:24;102369.97;;;2.31;61.43
41596;BME280;27283;52.504;13.358;2023-01-28T04:07:56;102368.81;;;2.56;61.03
41596;BME280;27283;52.504;13.358;2023-01-28T04:10:28;102369.28;;;2.64;58.39
41596;BME280;27283;52.504;13.358;2023-01-28T04:12:59;102364.09;;;2.80;58.98
41596;BME280;27283;52.504;13.358;2023-01-28T04:15:32;102368.16;;;2.87;57.93
41596;BME280;27283;52.504;13.358;2023-01-28T04:18:04;102372.72;;;3.03;57.73
41596;BME280;27283;52.504;13.358;2023-01-28T04:20:39;102374.09;;;2.92;56.93
41596;BME280;27283;52.504;13.358;2023-01-28T04:23:10;102369.56;;;2.77;57.66
41596;BME280;27283;52.504;13.358;2023-01-28T04:25:42;102374.38;;;2.69;55.76
41596;BME280;27283;52.504;13.358;2023-01-28T04:28:14;102369.09;;;2.86;55.86
41596;BME280;27283;52.504;13.358;2023-01-28T04:30:46;102368.41;;;2.82;55.30
41596;BME280;27283;52.504;13.358;2023-01-28T04:33:18;102368.72;;;2.94;54.54
41596;BME280;27283;52.504;13.358;2023-01-28T04:35:52;102378.41;;;3.12;55.33
41596;BME280;27283;52.504;13.358;2023-01-28T04:38:24;102377.19;;;3.02;54.78
41596;BME280;27283;52.504;13.358;2023-01-28T04:40:56;102380.28;;;3.10;55.91
41596;BME280;27283;52.504;13.358;2023-01-28T04:43:27;102377.38;;;2.97;54.40
41596;BME280;27283;52.504;13.358;2023-01-28T04:45:59;102373.56;;;2.86;55.00
41596;BME280;27283;52.504;13.358;2023-01-28T04:48:31;102374.25;;;2.89;55.71
41596;BME280;27283;52.504;13.358;2023-01-28T04:51:07;102369.59;;;3.12;54.09
41596;BME280;27283;52.504;13.358;2023-01-28T04:53:38;102367.88;;;2.93;55.20
41596;BME280;27283;52.504;13.358;2023-01-28T04:56:11;102363.75;;;3.05;53.98
41596;BME280;27283;52.504;13.358;2023-01-28T04:58:42;102370.13;;;3.01;54.54
41596;BME280;27283;52.504;13.358;2023-01-28T05:01:14;102373.41;;;2.89;54.31
41596;BME280;27283;52.504;13.358;2023-01-28T05:03:46;102365.28;;;2.92;55.66
41596;BME280;27283;52.504;13.358;2023-01-28T05:06:21;102370.31;;;2.79;54.11
41596;BME280;27283;52.504;13.358;2023-01-28T05:08:52;102378.03;;;3.20;54.08
41596;BME280;27283;52.504;13.358;2023-01-28T05:11:25;102379.03;;;3.00;53.45
41596;BME280;27283;52.504;13.358;2023-01-28T05:13:57;102374.03;;;2.94;54.43
41596;BME280;27283;52.504;13.358;2023-01-28T05:16:29;102383.31;;;2.85;54.05
41596;BME280;27283;52.504;13.358;2023-01-28T05:19:02;102398.63;;;2.97;54.24
41596;BME280;27283;52.504;13.358;2023-01-28T05:21:37;102404.16;;;3.29;53.33
41596;BME280;27283;52.504;13.358;2023-01-28T05:24:09;102398.13;;;3.08;53.83
41596;BME280;27283;52.504;13.358;2023-01-28T05:26:41;102403.91;;;2.99;53.77
41596;BME280;27283;52.504;13.358;2023-01-28T05:29:13;102397.72;;;2.98;54.44
41596;BME280;27283;52.504;13.358;2023-01-28T05:31:46;102404.41;;;3.25;52.66
41596;BME280;27283;52.504;13.358;2023-01-28T05:34:18;102400.16;;;3.21;53.41
41596;BME280;27283;52.504;13.358;2023-01-28T05:36:52;102392.97;;;3.05;53.28
41596;BME280;27283;52.504;13.358;2023-01-28T05:39:24;102401.53;;;2.93;52.33
41596;BME280;27283;52.504;13.358;2023-01-28T05:41:56;102391.31;;;3.03;53.32
41596;BME280;27283;52.504;13.358;2023-01-28T05:44:28;102391.47;;;3.17;54.12
41596;BME280;27283;52.504;13.358;2023-01-28T05:47:00;102391.16;;;3.06;54.69
41596;BME280;27283;52.504;13.358;2023-01-28T05:49:32;102391.72;;;3.30;52.91
41596;BME280;27283;52.504;13.358;2023-01-28T05:52:06;102393.53;;;3.29;52.95
41596;BME280;27283;52.504;13.358;2023-01-28T05:54:38;102395.53;;;3.24;52.94
41596;BME280;27283;52.504;13.358;2023-01-28T05:57:10;102394.53;;;3.27;52.87
41596;BME280;27283;52.504;13.358;2023-01-28T05:59:41;102398.09;;;2.91;52.50
41596;BME280;27283;52.504;13.358;2023-01-28T06:02:13;102391.94;;;2.90;53.11
41596;BME280;27283;52.504;13.358;2023-01-28T06:04:45;102396.25;;;3.10;52.74
41596;BME280;27283;52.504;13.358;2023-01-28T06:07:19;102394.66;;;2.89;53.15
41596;BME280;27283;52.504;13.358;2023-01-28T06:09:51;102394.84;;;3.38;51.99
41596;BME280;27283;52.504;13.358;2023-01-28T06:12:23;102392.44;;;3.16;52.01
41596;BME280;27283;52.504;13.358;2023-01-28T06:14:55;102397.97;;;3.29;51.63
41596;BME280;27283;52.504;13.358;2023-01-28T06:17:27;102400.56;;;3.13;52.48
41596;BME280;27283;52.504;13.358;2023-01-28T06:19:58;102403.53;;;3.24;52.90
41596;BME280;27283;52.504;13.358;2023-01-28T06:22:33;102404.31;;;3.44;51.23
41596;BME280;27283;52.504;13.358;2023-01-28T06:25:06;102399.09;;;3.25;52.01
41596;BME280;27283;52.504;13.358;2023-01-28T06:27:39;102409.63;;;3.09;52.73
41596;BME280;27283;52.504;13.358;2023-01-28T06:30:12;102408.06;;;3.22;52.38
41596;BME280;27283;52.504;13.358;2023-01-28T06:32:45;102409.31;;;3.15;52.42
41596;BME280;27283;52.504;13.358;2023-01-28T06:35:16;102411.03;;;3.51;50.94
41596;BME280;27283;52.504;13.358;2023-01-28T06:37:51;102413.53;;;3.71;52.10
41596;BME280;27283;52.504;13.358;2023-01-28T06:40:23;102407.13;;;3.41;52.00
41596;BME280;27283;52.504;13.358;2023-01-28T06:42:55;102415.00;;;3.77;51.51
41596;BME280;27283;52.504;13.358;2023-01-28T06:45:27;102411.88;;;3.51;51.73
41596;BME280;27283;52.504;13.358;2023-01-28T06:47:59;102420.03;;;3.66;50.92
41596;BME280;27283;52.504;13.358;2023-01-28T06:50:31;102420.56;;;3.37;50.46
41596;BME280;27283;52.504;13.358;2023-01-28T06:53:06;102416.66;;;3.10;51.89
41596;BME280;27283;52.504;13.358;2023-01-28T06:55:38;102415.84;;;3.08;51.07
41596;BME280;27283;52.504;13.358;2023-01-28T06:58:11;102415.69;;;2.93;51.56
41596;BME280;27283;52.504;13.358;2023-01-28T07:00:43;102409.81;;;2.87;51.81
41596;BME280;27283;52.504;13.358;2023-01-28T07:03:16;102420.88;;;3.31;49.94
41596;BME280;27283;52.504;13.358;2023-01-28T07:05:48;102416.28;;;3.17;51.51
41596;BME280;27283;52.504;13.358;2023-01-28T07:08:24;102423.16;;;3.22;50.73
41596;BME280;27283;52.504;13.358;2023-01-28T07:10:56;102421.16;;;3.44;50.98
41596;BME280;27283;52.504;13.358;2023-01-28T07:13:29;102422.06;;;3.26;50.74
41596;BME280;27283;52.504;13.358;2023-01-28T07:16:01;102424.19;;;3.54;50.65
41596;BME280;27283;52.504;13.358;2023-01-28T07:18:34;102423.91;;;3.06;51.81
41596;BME280;27283;52.504;13.358;2023-01-28T07:21:06;102430.75;;;3.47;50.64
41596;BME280;27283;52.504;13.358;2023-01-28T07:23:41;102426.75;;;3.55;50.97
41596;BME280;27283;52.504;13.358;2023-01-28T07:26:13;102421.69;;;3.68;50.11
41596;BME280;27283;52.504;13.358;2023-01-28T07:28:47;102427.44;;;3.59;50.69
41596;BME280;27283;52.504;13.358;2023-01-28T07:31:19;102420.00;;;3.13;51.39
41596;BME280;27283;52.504;13.358;2023-01-28T07:33:51;102422.69;;;3.31;50.98
41596;BME280;27283;52.504;13.358;2023-01-28T07:36:22;102431.19;;;3.03;51.14
41596;BME280;27283;52.504;13.358;2023-01-28T07:38:56;102423.47;;;3.33;50.49
41596;BME280;27283;52.504;13.358;2023-01-28T07:41:28;102432.03;;;3.03;51.27
41596;BME280;27283;52.504;13.358;2023-01-28T07:44:00;102423.59;;;2.95;51.24
41596;BME280;27283;52.504;13.358;2023-01-28T07:46:32;102418.06;;;3.17;50.50
41596;BME280;27283;52.504;13.358;2023-01-28T07:49:03;102437.41;;;3.01;50.90
41596;BME280;27283;52.504;13.358;2023-01-28T07:51:35;102430.50;;;2.80;50.97
41596;BME280;27283;52.504;13.358;2023-01-28T07:54:10;102431.09;;;3.04;50.88
41596;BME280;27283;52.504;13.358;2023-01-28T07:56:41;102428.44;;;3.04;50.66
41596;BME280;27283;52.504;13.358;2023-01-28T07:59:13;102424.38;;;2.97;51.32
41596;BME280;27283;52.504;13.358;2023-01-28T08:01:52;102419.47;;;3.07;51.06
41596;BME280;27283;52.504;13.358;2023-01-28T08:04:26;102435.56;;;3.21;51.33
41596;BME280;27283;52.504;13.358;2023-01-28T08:06:58;102428.69;;;3.17;51.30
41596;BME280;27283;52.504;13.358;2023-01-28T08:09:33;102443.25;;;3.45;51.22
41596;BME280;27283;52.504;13.358;2023-01-28T08:12:05;102439.81;;;3.25;49.78
41596;BME280;27283;52.504;13.358;2023-01-28T08:14:37;102442.88;;;3.70;48.47
41596;BME280;27283;52.504;13.358;2023-01-28T08:17:09;102450.94;;;3.68;48.70
41596;BME280;27283;52.504;13.358;2023-01-28T08:19:41;102447.94;;;3.57;48.80
41596;BME280;27283;52.504;13.358;2023-01-28T08:22:12;102444.53;;;4.06;49.11
41596;BME280;27283;52.504;13.358;2023-01-28T08:24:47;102449.34;;;3.82;49.07
41596;BME280;27283;52.504;13.358;2023-01-28T08:27:19;102455.22;;;3.88;49.48
41596;BME280;27283;52.504;13.358;2023-01-28T08:29:51;102456.06;;;4.06;49.42
41596;BME280;27283;52.504;13.358;2023-01-28T08:32:23;102460.22;;;4.28;48.37
41596;BME280;27283;52.504;13.358;2023-01-28T08:34:55;102465.13;;;4.36;47.45
41596;BME280;27283;52.504;13.358;2023-01-28T08:37:27;102466.13;;;4.00;49.08
41596;BME280;27283;52.504;13.358;2023-01-28T08:40:02;102479.22;;;4.38;48.89
41596;BME280;27283;52.504;13.358;2023-01-28T08:42:34;102485.19;;;3.57;48.60
41596;BME280;27283;52.504;13.358;2023-01-28T08:45:08;102479.22;;;3.34;48.43
41596;BME280;27283;52.504;13.358;2023-01-28T08:47:47;102469.50;;;3.16;49.48
41596;BME280;27283;52.504;13.358;2023-01-28T08:50:20;102473.13;;;3.50;48.95
41596;BME280;27283;52.504;13.358;2023-01-28T08:52:58;102466.94;;;3.84;48.81
41596;BME280;27283;52.504;13.358;2023-01-28T08:55:36;102473.81;;;4.06;47.02
41596;BME280;27283;52.504;13.358;2023-01-28T08:58:12;102477.53;;;3.68;47.46
41596;BME280;27283;52.504;13.358;2023-01-28T09:00:46;102477.53;;;4.19;47.78
41596;BME280;27283;52.504;13.358;2023-01-28T09:03:18;102477.44;;;4.05;47.43
41596;BME280;27283;52.504;13.358;2023-01-28T09:05:49;102488.34;;;4.16;46.46
41596;BME280;27283;52.504;13.358;2023-01-28T09:08:21;102487.88;;;3.75;47.58
41596;BME280;27283;52.504;13.358;2023-01-28T09:10:57;102490.50;;;3.92;47.92
41596;BME280;27283;52.504;13.358;2023-01-28T09:13:29;102492.38;;;3.72;47.33
41596;BME280;27283;52.504;13.358;2023-01-28T09:16:04;102490.81;;;4.03;48.18
41596;BME280;27283;52.504;13.358;2023-01-28T09:18:36;102486.50;;;4.18;47.05
41596;BME280;27283;52.504;13.358;2023-01-28T09:21:08;102496.38;;;3.81;47.72
41596;BME280;27283;52.504;13.358;2023-01-28T09:23:39;102511.94;;;3.89;48.00
41596;BME280;27283;52.504;13.358;2023-01-28T09:26:14;102502.47;;;4.18;47.77
41596;BME280;27283;52.504;13.358;2023-01-28T09:28:46;102509.69;;;3.99;47.79
41596;BME280;27283;52.504;13.358;2023-01-28T09:31:18;102517.13;;;4.10;48.31
41596;BME280;27283;52.504;13.358;2023-01-28T09:33:51;102509.97;;;4.43;48.12
41596;BME280;27283;52.504;13.358;2023-01-28T09:36:25;102515.31;;;4.10;47.53
41596;BME280;27283;52.504;13.358;2023-01-28T09:38:56;102518.56;;;4.33;46.69
41596;BME280;27283;52.504;13.358;2023-01-28T09:41:39;102516.22;;;4.26;47.13
41596;BME280;27283;52.504;13.358;2023-01-28T09:44:33;102514.72;;;4.21;46.12
41596;BME280;27283;52.504;13.358;2023-01-28T09:47:11;102513.38;;;4.47;45.94
41596;BME280;27283;52.504;13.358;2023-01-28T09:49:48;102515.16;;;4.47;46.37
41596;BME280;27283;52.504;13.358;2023-01-28T09:52:24;102517.22;;;4.24;47.27
41596;BME280;27283;52.504;13.358;2023-01-28T09:55:01;102519.94;;;3.89;47.96
41596;BME280;27283;52.504;13.358;2023-01-28T09:57:41;102515.69;;;3.85;47.87
41596;BME280;27283;52.504;13.358;2023-01-28T10:00:20;102529.50;;;3.93;48.16
41596;BME280;27283;52.504;13.358;2023-01-28T10:03:21;102523.28;;;4.10;47.71
41596;BME280;27283;52.504;13.358;2023-01-28T10:06:02;102521.81;;;4.04;47.41
41596;BME280;27283;52.504;13.358;2023-01-28T10:08:51;102515.84;;;3.82;47.28
41596;BME280;27283;52.504;13.358;2023-01-28T10:11:37;102513.41;;;4.12;47.29
41596;BME280;27283;52.504;13.358;2023-01-28T10:14:19;102513.88;;;4.20;46.71
41596;BME280;27283;52.504;13.358;2023-01-28T10:16:58;102511.72;;;4.11;46.88
41596;BME280;27283;52.504;13.358;2023-01-28T10:19:34;102512.56;;;4.45;46.41
41596;BME280;27283;52.504;13.358;2023-01-28T10:22:17;102507.28;;;4.61;46.30
41596;BME280;27283;52.504;13.358;2023-01-28T10:24:55;102509.56;;;4.51;46.11
41596;BME280;27283;52.504;13.358;2023-01-28T10:27:31;102521.03;;;4.53;46.37
41596;BME280;27283;52.504;13.358;2023-01-28T10:30:17;102507.03;;;4.66;45.57
41596;BME280;27283;52.504;13.358;2023-01-28T10:32:52;102502.63;;;4.65;46.11
41596;BME280;27283;52.504;13.358;2023-01-28T10:35:24;102503.22;;;4.38;45.69
41596;BME280;27283;52.504;13.358;2023-01-28T10:38:26;102494.47;;;4.18;46.90
41596;BME280;27283;52.504;13.358;2023-01-28T10:41:00;102493.25;;;4.41;46.34
41596;BME280;27283;52.504;13.358;2023-01-28T10:43:38;102495.25;;;4.03;46.61
41596;BME280;27283;52.504;13.358;2023-01-28T10:46:17;102503.31;;;4.52;46.00
41596;BME280;27283;52.504;13.358;2023-01-28T10:48:57;102494.56;;;4.66;45.86
41596;BME280;27283;52.504;13.358;2023-01-28T10:51:33;102498.91;;;4.51;45.95
41596;BME280;27283;52.504;13.358;2023-01-28T10:54:19;102500.28;;;4.42;47.07
41596;BME280;27283;52.504;13.358;2023-01-28T10:56:59;102497.00;;;4.04;47.33
41596;BME280;27283;52.504;13.358;2023-01-28T10:59:34;102495.50;;;4.16;49.14
41596;BME280;27283;52.504;13.358;2023-01-28T11:02:26;102490.91;;;4.35;47.57
41596;BME280;27283;52.504;13.358;2023-01-28T11:05:03;102494.81;;;4.61;46.44
41596;BME280;27283;52.504;13.358;2023-01-28T11:07:36;102493.94;;;4.77;47.41
41596;BME280;27283;52.504;13.358;2023-01-28T11:10:26;102492.72;;;4.51;47.25
41596;BME280;27283;52.504;13.358;2023-01-28T11:13:05;102489.25;;;3.29;49.39
41596;BME280;27283;52.504;13.358;2023-01-28T11:15:45;102484.59;;;3.15;50.58
41596;BME280;27283;52.504;13.358;2023-01-28T11:18:25;102487.88;;;3.75;49.18
41596;BME280;27283;52.504;13.358;2023-01-28T11:21:00;102484.50;;;3.53;49.73
41596;BME280;27283;52.504;13.358;2023-01-28T11:23:40;102486.59;;;3.47;50.21
41596;BME280;27283;52.504;13.358;2023-01-28T11:26:23;102475.72;;;3.34;51.38
41596;BME280;27283;52.504;13.358;2023-01-28T11:28:55;102480.38;;;2.92;53.16
41596;BME280;27283;52.504;13.358;2023-01-28T11:31:27;102478.94;;;3.04;53.39
41596;BME280;27283;52.504;13.358;2023-01-28T11:34:04;102473.38;;;3.28;53.49
41596;BME280;27283;52.504;13.358;2023-01-28T11:36:36;102477.75;;;3.81;52.39
41596;BME280;27283;52.504;13.358;2023-01-28T11:39:19;102475.72;;;3.69;52.75
41596;BME280;27283;52.504;13.358;2023-01-28T11:41:53;102473.09;;;3.15;54.19
41596;BME280;27283;52.504;13.358;2023-01-28T11:44:26;102472.13;;;3.52;54.26
41596;BME280;27283;52.504;13.358;2023-01-28T11:47:22;102459.38;;;3.77;54.03
41596;BME280;27283;52.504;13.358;2023-01-28T11:53:14;102467.72;;;3.16;55.47
41596;BME280;27283;52.504;13.358;2023-01-28T11:55:59;102462.81;;;3.26;55.76
41596;BME280;27283;52.504;13.358;2023-01-28T11:58:42;102452.47;;;3.37;55.37
41596;BME280;27283;52.504;13.358;2023-01-28T12:01:23;102447.97;;;3.75;54.72
41596;BME280;27283;52.504;13.358;2023-01-28T12:04:19;102465.03;;;3.16;55.53
41596;BME280;27283;52.504;13.358;2023-01-28T12:07:19;102464.44;;;2.92;57.45
41596;BME280;27283;52.504;13.358;2023-01-28T12:09:59;102465.19;;;2.77;59.41
41596;BME280;27283;52.504;13.358;2023-01-28T12:12:55;102456.72;;;2.50;61.14
41596;BME280;27283;52.504;13.358;2023-01-28T12:21:40;102448.25;;;2.79;59.11
41596;BME280;27283;52.504;13.358;2023-01-28T12:24:33;102451.91;;;3.13;59.06
41596;BME280;27283;52.504;13.358;2023-01-28T12:27:32;102447.78;;;3.25;59.16
41596;BME280;27283;52.504;13.358;2023-01-28T12:30:20;102448.09;;;3.89;58.13
41596;BME280;27283;52.504;13.358;2023-01-28T12:33:13;102458.00;;;4.03;56.62
41596;BME280;27283;52.504;13.358;2023-01-28T12:35:58;102454.44;;;3.51;57.36
41596;BME280;27283;52.504;13.358;2023-01-28T12:38:47;102452.72;;;3.85;56.92
41596;BME280;27283;52.504;13.358;2023-01-28T12:41:31;102449.50;;;3.96;57.77
41596;BME280;27283;52.504;13.358;2023-01-28T12:44:14;102443.88;;;4.18;59.05
41596;BME280;27283;52.504;13.358;2023-01-28T12:46:53;102444.69;;;3.52;58.47
41596;BME280;27283;52.504;13.358;2023-01-28T12:49:34;102422.16;;;2.69;59.43
41596;BME280;27283;52.504;13.358;2023-01-28T12:52:11;102428.59;;;1.87;61.23
41596;BME280;27283;52.504;13.358;2023-01-28T12:54:53;102426.84;;;2.82;61.06
41596;BME280;27283;52.504;13.358;2023-01-28T12:57:31;102434.34;;;3.46;58.16
41596;BME280;27283;52.504;13.358;2023-01-28T13:00:19;102433.38;;;3.82;56.67
41596;BME280;27283;52.504;13.358;2023-01-28T13:03:04;102420.94;;;3.82;55.24
41596;BME280;27283;52.504;13.358;2023-01-28T13:05:45;102427.06;;;3.67;55.42
41596;BME280;27283;52.504;13.358;2023-01-28T13:08:23;102419.09;;;3.14;56.21
41596;BME280;27283;52.504;13.358;2023-01-28T13:10:57;102412.09;;;3.82;55.06
41596;BME280;27283;52.504;13.358;2023-01-28T13:13:35;102408.50;;;3.83;53.96
41596;BME280;27283;52.504;13.358;2023-01-28T13:16:10;102399.66;;;4.48;52.85
41596;BME280;27283;52.504;13.358;2023-01-28T13:18:46;102396.69;;;4.38;53.54
41596;BME280;27283;52.504;13.358;2023-01-28T13:21:29;102386.34;;;4.48;51.98
41596;BME280;27283;52.504;13.358;2023-01-28T13:24:30;102383.44;;;3.53;53.89
41596;BME280;27283;52.504;13.358;2023-01-28T13:27:11;102389.78;;;3.84;52.14
41596;BME280;27283;52.504;13.358;2023-01-28T13:30:01;102396.06;;;4.33;50.81
41596;BME280;27283;52.504;13.358;2023-01-28T13:32:35;102386.25;;;4.33;50.53
41596;BME280;27283;52.504;13.358;2023-01-28T13:35:32;102385.53;;;3.98;52.44
41596;BME280;27283;52.504;13.358;2023-01-28T13:38:08;102386.00;;;4.22;51.33
41596;BME280;27283;52.504;13.358;2023-01-28T13:40:53;102383.41;;;4.20;51.00
41596;BME280;27283;52.504;13.358;2023-01-28T13:43:35;102392.16;;;4.06;50.19
41596;BME280;27283;52.504;13.358;2023-01-28T13:46:13;102386.59;;;4.11;50.63
41596;BME280;27283;52.504;13.358;2023-01-28T13:48:58;102389.88;;;3.83;50.47
41596;BME280;27283;52.504;13.358;2023-01-28T13:51:33;102385.78;;;3.42;50.96
41596;BME280;27283;52.504;13.358;2023-01-28T13:54:14;102390.59;;;3.51;50.89